Time;durP1;ratioP1;P1;durP2;ratioP2;P2;SDS_P1;SDS_P2;PMS_P1;PMS_P2;Temp;Humidity;BMP_temperature;BMP_pressure;BME280_temperature;BME280_humidity;BME280_pressure;Samples;Min_cycle;Max_cycle;Signal;HPM_P1;HPM_P2
2022/05/14 00:01:34;;;;;;;5.80;3.95;;;;;;;;;;5054595;28;20409;-81
2022/05/14 00:04:00;;;;;;;4.35;3.95;;;;;;;;;;5054601;28;20378;-82
2022/05/14 00:06:28;;;;;;;5.70;4.10;;;;;;;;;;5054573;28;20479;-82
2022/05/14 00:08:54;;;;;;;5.82;4.18;;;;;;;;;;5054652;28;20382;-82
2022/05/14 00:14:05;;;;;;;5.00;4.07;;;;;;;;;;5054424;28;20384;-81
2022/05/14 00:16:32;;;;;;;4.68;3.97;;;;;;;;;;5053549;28;20385;-81
2022/05/14 00:18:58;;;;;;;5.57;4.07;;;;;;;;;;5054106;28;20385;-81
2022/05/14 00:21:24;;;;;;;5.18;4.05;;;;;;;;;;5054392;28;20472;-81
2022/05/14 00:23:51;;;;;;;4.68;3.92;;;;;;;;;;5052685;28;20786;-81
2022/05/14 00:26:17;;;;;;;4.40;4.00;;;;;;;;;;5041878;28;20383;-82
2022/05/14 00:28:43;;;;;;;5.20;4.30;;;;;;;;;;5034187;28;20418;-81
2022/05/14 00:31:09;;;;;;;6.17;4.07;;;;;;;;;;5034423;28;20383;-82
2022/05/14 00:33:36;;;;;;;4.75;4.25;;;;;;;;;;5055821;28;20920;-81
2022/05/14 00:36:02;;;;;;;4.68;3.92;;;;;;;;;;5054051;28;20385;-81
2022/05/14 00:38:29;;;;;;;6.00;4.10;;;;;;;;;;5053933;28;20448;-81
2022/05/14 00:41:05;;;;;;;6.70;4.00;;;;;;;;;;5053880;28;20389;-81
2022/05/14 00:43:31;;;;;;;4.60;3.85;;;;;;;;;;5053720;28;20438;-81
2022/05/14 00:46:27;;;;;;;6.05;4.10;;;;;;;;;;5053815;28;20409;-81
2022/05/14 00:48:54;;;;;;;3.80;3.50;;;;;;;;;;4999437;28;20405;-82
2022/05/14 00:51:28;;;;;;;4.15;3.65;;;;;;;;;;5053880;28;20389;-81
2022/05/14 00:54:02;;;;;;;4.25;3.83;;;;;;;;;;5054246;28;20408;-81
2022/05/14 00:56:33;;;;;;;5.03;4.07;;;;;;;;;;5052336;28;20961;-81
2022/05/14 00:59:05;;;;;;;4.20;3.63;;;;;;;;;;5053701;28;20377;-84
2022/05/14 01:01:31;;;;;;;4.40;4.00;;;;;;;;;;5053344;28;20393;-81
2022/05/14 01:03:57;;;;;;;3.95;3.55;;;;;;;;;;5053780;28;20388;-81
2022/05/14 01:06:25;;;;;;;5.23;4.00;;;;;;;;;;5053340;28;20409;-81
2022/05/14 01:08:51;;;;;;;5.40;3.58;;;;;;;;;;5051956;28;20386;-81
2022/05/14 01:11:17;;;;;;;4.18;3.58;;;;;;;;;;5053237;28;20386;-81
2022/05/14 01:13:43;;;;;;;5.55;3.92;;;;;;;;;;5053319;28;20400;-82
2022/05/14 01:16:09;;;;;;;5.95;4.10;;;;;;;;;;5053311;28;20378;-82
2022/05/14 01:18:36;;;;;;;4.17;3.77;;;;;;;;;;5053223;28;20542;-81
2022/05/14 01:21:07;;;;;;;4.65;3.75;;;;;;;;;;5050834;28;20389;-82
2022/05/14 01:23:33;;;;;;;4.45;3.70;;;;;;;;;;5051730;28;20435;-81
2022/05/14 01:26:27;;;;;;;3.70;3.40;;;;;;;;;;5049569;28;20735;-81
2022/05/14 01:28:54;;;;;;;4.30;3.50;;;;;;;;;;5052153;28;20390;-81
2022/05/14 01:31:20;;;;;;;3.88;3.40;;;;;;;;;;5052884;28;20786;-81
2022/05/14 01:33:46;;;;;;;4.65;3.80;;;;;;;;;;5052819;28;20381;-81
2022/05/14 01:36:12;;;;;;;3.92;3.55;;;;;;;;;;5052887;28;20884;-81
2022/05/14 01:38:38;;;;;;;4.38;3.72;;;;;;;;;;5052659;28;20386;-81
2022/05/14 01:41:04;;;;;;;4.65;3.95;;;;;;;;;;5053999;28;20383;-81
2022/05/14 01:43:30;;;;;;;4.97;3.60;;;;;;;;;;5052773;28;20708;-81
2022/05/14 01:45:56;;;;;;;4.97;3.40;;;;;;;;;;5053062;28;20423;-81
2022/05/14 01:48:22;;;;;;;4.28;3.50;;;;;;;;;;5052221;28;20401;-81
2022/05/14 01:50:48;;;;;;;5.07;3.40;;;;;;;;;;5052600;28;20774;-81
2022/05/14 01:53:14;;;;;;;4.20;3.53;;;;;;;;;;5052634;28;20374;-81
2022/05/14 01:55:40;;;;;;;4.87;3.57;;;;;;;;;;5052913;28;20401;-81
2022/05/14 02:01:09;;;;;;;4.82;3.55;;;;;;;;;;5040192;28;20402;-81
2022/05/14 02:03:35;;;;;;;4.85;3.63;;;;;;;;;;5052363;28;20385;-81
2022/05/14 02:06:01;;;;;;;4.10;3.70;;;;;;;;;;5052542;28;20434;-81
2022/05/14 02:08:27;;;;;;;4.63;3.72;;;;;;;;;;5052138;28;20431;-82
2022/05/14 02:10:53;;;;;;;4.28;3.70;;;;;;;;;;5052306;28;20858;-82
2022/05/14 02:13:19;;;;;;;4.82;3.30;;;;;;;;;;5052370;28;20377;-82
2022/05/14 02:15:45;;;;;;;5.35;3.53;;;;;;;;;;5052228;28;20898;-82
2022/05/14 02:18:11;;;;;;;5.60;3.93;;;;;;;;;;5052050;28;20385;-82
2022/05/14 02:20:37;;;;;;;4.75;3.58;;;;;;;;;;5052346;28;20851;-82
2022/05/14 02:23:03;;;;;;;4.70;3.63;;;;;;;;;;5038647;28;20379;-82
2022/05/14 02:25:29;;;;;;;3.85;3.47;;;;;;;;;;5032240;28;20478;-82
2022/05/14 02:27:55;;;;;;;6.57;3.70;;;;;;;;;;5032931;28;20494;-82
2022/05/14 02:30:21;;;;;;;5.68;3.53;;;;;;;;;;5032231;28;20864;-82
2022/05/14 02:32:47;;;;;;;4.05;3.65;;;;;;;;;;5032065;28;20380;-82
2022/05/14 02:35:14;;;;;;;4.10;3.72;;;;;;;;;;5037202;28;20463;-82
2022/05/14 02:37:40;;;;;;;4.90;3.45;;;;;;;;;;5052889;28;20409;-82
2022/05/14 02:40:06;;;;;;;4.93;3.42;;;;;;;;;;5041698;28;20419;-81
2022/05/14 02:42:32;;;;;;;4.15;3.33;;;;;;;;;;5036201;28;20922;-82
2022/05/14 02:44:58;;;;;;;4.07;3.37;;;;;;;;;;5036043;28;20550;-82
2022/05/14 02:47:24;;;;;;;3.33;3.03;;;;;;;;;;5036167;28;20421;-82
2022/05/14 02:49:50;;;;;;;3.97;2.97;;;;;;;;;;5034748;28;20783;-82
2022/05/14 02:52:16;;;;;;;4.32;2.97;;;;;;;;;;5036375;28;20379;-81
2022/05/14 02:54:42;;;;;;;4.43;2.73;;;;;;;;;;5036084;28;20740;-82
2022/05/14 02:57:08;;;;;;;3.88;2.50;;;;;;;;;;5035750;28;20402;-82
2022/05/14 02:59:34;;;;;;;3.13;2.80;;;;;;;;;;5035971;28;20457;-82
2022/05/14 03:02:03;;;;;;;3.97;2.90;;;;;;;;;;5035767;28;20920;-81
2022/05/14 03:04:30;;;;;;;3.72;2.65;;;;;;;;;;5035781;28;20391;-81
2022/05/14 03:06:57;;;;;;;4.18;2.97;;;;;;;;;;5035724;28;20437;-81
2022/05/14 03:09:23;;;;;;;3.38;2.83;;;;;;;;;;5049654;28;20381;-81
2022/05/14 03:11:49;;;;;;;4.10;3.20;;;;;;;;;;5055730;28;20404;-81
2022/05/14 03:14:16;;;;;;;3.30;2.70;;;;;;;;;;5055564;28;20503;-81
2022/05/14 03:16:43;;;;;;;3.70;2.92;;;;;;;;;;5055514;28;20386;-81
2022/05/14 03:19:09;;;;;;;4.10;2.63;;;;;;;;;;5055537;28;20735;-81
2022/05/14 03:21:35;;;;;;;3.00;2.72;;;;;;;;;;5054328;28;20791;-81
2022/05/14 03:24:01;;;;;;;3.67;3.17;;;;;;;;;;5055463;28;20728;-81
2022/05/14 03:26:27;;;;;;;3.75;2.60;;;;;;;;;;5055227;28;20385;-81
2022/05/14 03:28:53;;;;;;;3.35;2.90;;;;;;;;;;5055553;28;20385;-81
2022/05/14 03:31:20;;;;;;;4.03;2.90;;;;;;;;;;5055360;28;20464;-81
2022/05/14 03:33:46;;;;;;;3.78;2.80;;;;;;;;;;5053171;28;20862;-81
2022/05/14 03:36:12;;;;;;;4.07;2.67;;;;;;;;;;5035946;28;20382;-81
2022/05/14 03:38:38;;;;;;;4.85;2.72;;;;;;;;;;5043132;28;20520;-81
2022/05/14 03:41:05;;;;;;;4.28;2.90;;;;;;;;;;5055109;28;20436;-81
2022/05/14 03:43:31;;;;;;;3.25;2.80;;;;;;;;;;5053975;28;20385;-81
2022/05/14 03:45:58;;;;;;;3.93;2.70;;;;;;;;;;5055023;28;20940;-81
2022/05/14 03:48:24;;;;;;;4.53;2.93;;;;;;;;;;5054863;28;20766;-81
2022/05/14 03:50:52;;;;;;;2.83;2.60;;;;;;;;;;5056177;28;20378;-81
2022/05/14 03:53:18;;;;;;;4.72;2.95;;;;;;;;;;5054808;28;20451;-81
2022/05/14 03:55:44;;;;;;;4.60;2.80;;;;;;;;;;5054785;28;20373;-81
2022/05/14 03:58:11;;;;;;;3.55;2.75;;;;;;;;;;5055063;28;20377;-81
2022/05/14 04:00:37;;;;;;;3.58;2.90;;;;;;;;;;5055249;28;20931;-82
2022/05/14 04:03:03;;;;;;;3.47;2.45;;;;;;;;;;5054593;28;20385;-81
2022/05/14 04:05:30;;;;;;;5.37;2.90;;;;;;;;;;5054573;28;20541;-81
2022/05/14 04:07:56;;;;;;;2.50;2.30;;;;;;;;;;5054721;28;20956;-81
2022/05/14 04:10:22;;;;;;;2.83;2.50;;;;;;;;;;5054511;28;20408;-81
2022/05/14 04:12:48;;;;;;;5.83;2.50;;;;;;;;;;5054754;28;20867;-81
2022/05/14 04:15:14;;;;;;;3.47;2.50;;;;;;;;;;5054448;28;20389;-81
2022/05/14 04:17:41;;;;;;;3.97;2.50;;;;;;;;;;5054328;28;20385;-81
2022/05/14 04:20:08;;;;;;;3.20;2.57;;;;;;;;;;5054915;28;20440;-81
2022/05/14 04:22:34;;;;;;;3.35;2.60;;;;;;;;;;5054272;28;20903;-81
2022/05/14 04:25:00;;;;;;;5.17;3.00;;;;;;;;;;5054412;28;20454;-81
2022/05/14 04:27:26;;;;;;;3.70;2.53;;;;;;;;;;5042711;28;20395;-81
2022/05/14 04:29:52;;;;;;;3.10;2.50;;;;;;;;;;5035275;28;20420;-81
2022/05/14 04:32:18;;;;;;;5.35;2.60;;;;;;;;;;5044481;28;20386;-81
2022/05/14 04:34:45;;;;;;;4.75;2.67;;;;;;;;;;5043225;28;20383;-80
2022/05/14 04:37:11;;;;;;;3.30;2.47;;;;;;;;;;5042337;28;20389;-80
2022/05/14 04:39:37;;;;;;;3.78;2.90;;;;;;;;;;5046352;28;20373;-80
2022/05/14 04:42:06;;;;;;;3.90;2.78;;;;;;;;;;5042765;28;20379;-81
2022/05/14 04:44:32;;;;;;;3.20;2.80;;;;;;;;;;5039365;28;20395;-81
2022/05/14 04:47:04;;;;;;;4.00;2.45;;;;;;;;;;5054681;28;20394;-83
2022/05/14 04:49:30;;;;;;;4.35;2.20;;;;;;;;;;5052273;28;20392;-81
2022/05/14 04:51:56;;;;;;;3.20;2.57;;;;;;;;;;5053812;28;20383;-82
2022/05/14 04:54:23;;;;;;;3.05;2.28;;;;;;;;;;5054217;28;20377;-80
2022/05/14 04:56:49;;;;;;;3.17;2.30;;;;;;;;;;5053867;28;20393;-80
2022/05/14 04:59:15;;;;;;;3.42;2.20;;;;;;;;;;5049859;28;20485;-83
2022/05/14 05:04:26;;;;;;;3.40;2.30;;;;;;;;;;5055449;28;20461;-82
2022/05/14 05:06:52;;;;;;;2.50;2.10;;;;;;;;;;5053545;28;20508;-84
2022/05/14 05:09:18;;;;;;;3.55;2.20;;;;;;;;;;5053639;28;20477;-81
2022/05/14 05:11:44;;;;;;;2.90;2.40;;;;;;;;;;5064475;28;20888;-85
2022/05/14 05:14:10;;;;;;;3.63;2.77;;;;;;;;;;5053493;28;20426;-81
2022/05/14 05:16:36;;;;;;;3.47;2.10;;;;;;;;;;5059954;28;20390;-81
2022/05/14 05:19:02;;;;;;;3.58;2.13;;;;;;;;;;5060112;28;20877;-81
2022/05/14 05:21:28;;;;;;;2.95;2.13;;;;;;;;;;5065663;28;20451;-81
2022/05/14 05:23:54;;;;;;;4.23;2.30;;;;;;;;;;5063910;28;20387;-81
2022/05/14 05:26:20;;;;;;;5.57;2.30;;;;;;;;;;5059587;28;20393;-81
2022/05/14 05:28:46;;;;;;;3.22;2.30;;;;;;;;;;5046182;28;20464;-81
2022/05/14 05:31:12;;;;;;;2.80;2.38;;;;;;;;;;5040785;28;20463;-82
2022/05/14 05:33:39;;;;;;;3.92;2.45;;;;;;;;;;5049420;28;20373;-81
2022/05/14 05:36:07;;;;;;;3.42;2.30;;;;;;;;;;5049051;28;20440;-81
2022/05/14 05:38:33;;;;;;;3.50;2.10;;;;;;;;;;5052749;28;20439;-81
2022/05/14 05:40:59;;;;;;;3.25;2.20;;;;;;;;;;5052955;28;20390;-81
2022/05/14 05:43:26;;;;;;;3.50;2.08;;;;;;;;;;5055542;28;20874;-81
2022/05/14 05:45:52;;;;;;;2.58;1.90;;;;;;;;;;5048303;28;20425;-81
2022/05/14 05:48:19;;;;;;;4.35;2.20;;;;;;;;;;5051013;28;20405;-81
2022/05/14 05:50:48;;;;;;;4.03;2.30;;;;;;;;;;5052630;28;20378;-79
2022/05/14 05:53:14;;;;;;;3.00;2.17;;;;;;;;;;5052312;28;20901;-79
2022/05/14 05:58:24;;;;;;;3.38;2.20;;;;;;;;;;5052671;28;20451;-79
2022/05/14 06:00:50;;;;;;;3.00;2.20;;;;;;;;;;5052631;28;20373;-80
2022/05/14 06:03:16;;;;;;;2.80;2.00;;;;;;;;;;5052159;28;20404;-79
2022/05/14 06:05:43;;;;;;;3.65;2.25;;;;;;;;;;5051057;28;20855;-80
2022/05/14 06:08:10;;;;;;;2.85;2.15;;;;;;;;;;5050971;28;20405;-79
2022/05/14 06:10:36;;;;;;;3.30;2.10;;;;;;;;;;5044349;28;20389;-79
2022/05/14 06:13:02;;;;;;;3.03;2.05;;;;;;;;;;5046988;28;20380;-80
2022/05/14 06:15:28;;;;;;;4.07;2.10;;;;;;;;;;5051454;28;20392;-80
2022/05/14 06:17:59;;;;;;;2.95;1.90;;;;;;;;;;5038648;28;20888;-79
2022/05/14 06:20:25;;;;;;;3.20;2.15;;;;;;;;;;5045020;28;20400;-80
2022/05/14 06:22:51;;;;;;;5.40;2.08;;;;;;;;;;5045826;28;20393;-79
2022/05/14 06:25:17;;;;;;;2.93;2.10;;;;;;;;;;5038681;28;20393;-80
2022/05/14 06:27:43;;;;;;;3.35;2.22;;;;;;;;;;5041493;28;20406;-80
2022/05/14 06:30:09;;;;;;;5.15;2.15;;;;;;;;;;5032438;28;20391;-80
2022/05/14 06:32:36;;;;;;;3.15;2.00;;;;;;;;;;5032367;28;20387;-79
2022/05/14 06:35:03;;;;;;;3.63;1.93;;;;;;;;;;5034375;28;20460;-80
2022/05/14 06:37:29;;;;;;;3.40;1.77;;;;;;;;;;5040714;28;20391;-81
2022/05/14 06:39:55;;;;;;;3.25;1.90;;;;;;;;;;5060251;28;20378;-82
2022/05/14 06:42:22;;;;;;;3.45;1.83;;;;;;;;;;5055487;23;20464;-83
2022/05/14 06:44:48;;;;;;;3.03;1.90;;;;;;;;;;5043566;28;20387;-84
2022/05/14 06:47:14;;;;;;;2.80;1.75;;;;;;;;;;5033161;28;20439;-86
2022/05/14 06:49:40;;;;;;;4.07;1.97;;;;;;;;;;5038756;28;20444;-85
2022/05/14 06:52:08;;;;;;;3.63;1.85;;;;;;;;;;5030464;28;20388;-84
2022/05/14 06:54:35;;;;;;;6.85;2.10;;;;;;;;;;5053965;28;20391;-84
2022/05/14 06:57:02;;;;;;;3.43;1.90;;;;;;;;;;5051879;28;20459;-87
2022/05/14 06:59:28;;;;;;;3.57;1.90;;;;;;;;;;5051995;28;20424;-88
2022/05/14 07:01:54;;;;;;;4.75;2.00;;;;;;;;;;5048125;28;20728;-84
2022/05/14 07:07:07;;;;;;;5.45;2.15;;;;;;;;;;5050946;28;20461;-85
2022/05/14 07:09:33;;;;;;;3.28;2.00;;;;;;;;;;5051245;28;20420;-86
2022/05/14 07:12:03;;;;;;;2.73;1.60;;;;;;;;;;5051784;28;20381;-87
2022/05/14 07:14:29;;;;;;;4.20;2.00;;;;;;;;;;5051214;28;20822;-87
2022/05/14 07:16:55;;;;;;;3.40;1.83;;;;;;;;;;5048100;28;20398;-87
2022/05/14 07:19:21;;;;;;;2.88;1.90;;;;;;;;;;5049887;28;20403;-87
2022/05/14 07:21:48;;;;;;;3.72;2.00;;;;;;;;;;5048354;28;20381;-86
2022/05/14 07:24:16;;;;;;;3.78;1.90;;;;;;;;;;5050457;28;20389;-87
2022/05/14 07:26:42;;;;;;;2.55;1.85;;;;;;;;;;5053948;28;20373;-86
2022/05/14 07:29:09;;;;;;;2.75;1.73;;;;;;;;;;5054034;28;20393;-87
2022/05/14 07:31:35;;;;;;;3.63;2.00;;;;;;;;;;5054697;28;20438;-86
2022/05/14 07:34:02;;;;;;;3.38;1.70;;;;;;;;;;5055222;28;20477;-86
2022/05/14 07:36:29;;;;;;;3.83;1.92;;;;;;;;;;5055545;28;20381;-86
2022/05/14 07:38:58;;;;;;;3.80;2.00;;;;;;;;;;5057663;28;20384;-86
2022/05/14 07:41:25;;;;;;;4.15;1.60;;;;;;;;;;5055064;28;20386;-87
2022/05/14 07:43:52;;;;;;;2.80;1.80;;;;;;;;;;5054215;28;20382;-87
2022/05/14 07:46:20;;;;;;;4.55;1.77;;;;;;;;;;5055276;28;20468;-86
2022/05/14 07:48:46;;;;;;;3.53;1.63;;;;;;;;;;5054737;28;20413;-87
2022/05/14 07:51:13;;;;;;;4.13;1.60;;;;;;;;;;5054747;28;20381;-86
2022/05/14 07:53:39;;;;;;;4.18;1.70;;;;;;;;;;5054959;28;20435;-87
2022/05/14 07:56:08;;;;;;;3.42;1.70;;;;;;;;;;5055279;28;20788;-87
2022/05/14 07:58:34;;;;;;;2.05;1.23;;;;;;;;;;5055259;28;20795;-86
2022/05/14 08:01:00;;;;;;;4.40;1.65;;;;;;;;;;5054910;28;20385;-87
2022/05/14 08:03:27;;;;;;;4.37;1.77;;;;;;;;;;5054204;28;20460;-86
2022/05/14 08:05:56;;;;;;;4.30;1.23;;;;;;;;;;5054984;28;20456;-86
2022/05/14 08:08:22;;;;;;;3.95;1.50;;;;;;;;;;5054272;28;20405;-87
2022/05/14 08:10:49;;;;;;;2.80;1.20;;;;;;;;;;5054820;28;20975;-87
2022/05/14 08:13:17;;;;;;;3.55;1.27;;;;;;;;;;5048953;28;20395;-87
2022/05/14 08:15:44;;;;;;;4.10;1.37;;;;;;;;;;5034956;28;20402;-87
2022/05/14 08:18:10;;;;;;;4.55;1.42;;;;;;;;;;5034573;28;20395;-87
2022/05/14 08:20:36;;;;;;;3.63;1.40;;;;;;;;;;5034604;28;20517;-88
2022/05/14 08:25:49;;;;;;;2.67;1.52;;;;;;;;;;5034282;28;20894;-88
2022/05/14 08:28:15;;;;;;;4.45;1.70;;;;;;;;;;5034715;28;20816;-87
2022/05/14 08:30:41;;;;;;;2.78;1.60;;;;;;;;;;5034216;28;20525;-87
2022/05/14 08:33:07;;;;;;;4.17;1.40;;;;;;;;;;5034345;28;20477;-87
2022/05/14 08:35:33;;;;;;;3.70;1.50;;;;;;;;;;5051243;28;20846;-86
2022/05/14 08:38:00;;;;;;;2.45;1.33;;;;;;;;;;5053429;28;20394;-86
2022/05/14 08:40:28;;;;;;;3.78;1.55;;;;;;;;;;5053462;28;20488;-87
2022/05/14 08:42:55;;;;;;;3.28;1.40;;;;;;;;;;5053435;28;20424;-88
2022/05/14 08:45:22;;;;;;;3.38;1.50;;;;;;;;;;5054661;28;20425;-87
2022/05/14 08:47:57;;;;;;;2.47;1.30;;;;;;;;;;5056562;28;20409;-87
2022/05/14 08:50:25;;;;;;;2.88;1.33;;;;;;;;;;5053778;28;20380;-87
2022/05/14 08:52:51;;;;;;;3.65;1.52;;;;;;;;;;5053958;28;20374;-87
2022/05/14 08:55:18;;;;;;;3.95;1.67;;;;;;;;;;5054132;28;20391;-87
2022/05/14 08:57:49;;;;;;;4.65;1.60;;;;;;;;;;5053671;28;20743;-87
2022/05/14 09:00:16;;;;;;;2.90;1.60;;;;;;;;;;5053602;28;20389;-87
2022/05/14 09:02:44;;;;;;;8.77;1.50;;;;;;;;;;5053565;28;20393;-87
2022/05/14 09:05:09;;;;;;;7.20;1.90;;;;;;;;;;5053959;28;20385;-88
2022/05/14 09:07:37;;;;;;;4.13;1.60;;;;;;;;;;5053365;28;20401;-87
2022/05/14 09:10:04;;;;;;;3.95;1.58;;;;;;;;;;5053496;28;20389;-87
2022/05/14 09:12:32;;;;;;;3.88;1.63;;;;;;;;;;5053728;28;20778;-87
2022/05/14 09:15:00;;;;;;;3.05;1.58;;;;;;;;;;5053562;28;20377;-87
2022/05/14 09:17:29;;;;;;;3.45;1.40;;;;;;;;;;5053060;28;20396;-88
2022/05/14 09:19:55;;;;;;;4.40;1.58;;;;;;;;;;5053013;28;20377;-88
2022/05/14 09:22:28;;;;;;;3.17;1.30;;;;;;;;;;5053323;28;20380;-88
2022/05/14 09:25:12;;;;;;;2.75;1.63;;;;;;;;;;5053207;28;20385;-88
2022/05/14 09:27:46;;;;;;;3.63;1.70;;;;;;;;;;5053065;28;20486;-87
2022/05/14 09:30:22;;;;;;;4.55;1.80;;;;;;;;;;5053299;28;20423;-88
2022/05/14 09:32:49;;;;;;;4.13;2.10;;;;;;;;;;5053209;28;20375;-87
2022/05/14 09:35:15;;;;;;;3.78;1.85;;;;;;;;;;5053022;28;20369;-88
2022/05/14 09:37:42;;;;;;;4.35;2.00;;;;;;;;;;5052599;28;20406;-87
2022/05/14 09:40:10;;;;;;;3.55;1.77;;;;;;;;;;5053190;28;20381;-88
2022/05/14 09:42:44;;;;;;;4.15;1.65;;;;;;;;;;5052906;28;20401;-87
2022/05/14 09:45:22;;;;;;;2.58;1.80;;;;;;;;;;5055655;28;20739;-87
2022/05/14 09:47:48;;;;;;;4.17;1.60;;;;;;;;;;5052717;28;20466;-88
2022/05/14 09:50:34;;;;;;;3.80;1.50;;;;;;;;;;5052380;28;20443;-88
2022/05/14 09:53:01;;;;;;;4.20;1.65;;;;;;;;;;5052303;28;20370;-89
2022/05/14 09:55:50;;;;;;;6.45;1.77;;;;;;;;;;5052457;28;20381;-88
2022/05/14 09:58:38;;;;;;;4.13;1.70;;;;;;;;;;5044712;28;20394;-88
2022/05/14 10:01:08;;;;;;;4.97;1.80;;;;;;;;;;5052715;28;20381;-87
2022/05/14 10:03:34;;;;;;;3.20;1.57;;;;;;;;;;5053254;28;20473;-88
2022/05/14 10:06:03;;;;;;;3.43;1.53;;;;;;;;;;5053273;28;20385;-87
2022/05/14 10:08:44;;;;;;;2.63;1.60;;;;;;;;;;5052757;28;20409;-87
2022/05/14 10:11:10;;;;;;;3.85;1.75;;;;;;;;;;5052552;28;20377;-88
2022/05/14 10:13:42;;;;;;;5.07;1.90;;;;;;;;;;5051920;28;20456;-88
2022/05/14 10:16:17;;;;;;;3.15;1.70;;;;;;;;;;5052148;28;20385;-87
2022/05/14 10:18:46;;;;;;;3.33;1.65;;;;;;;;;;5052531;28;20374;-88
2022/05/14 10:21:23;;;;;;;3.83;1.60;;;;;;;;;;5052351;28;20506;-88
2022/05/14 10:26:46;;;;;;;3.50;1.95;;;;;;;;;;5052055;28;20433;-88
2022/05/14 10:29:27;;;;;;;4.68;1.85;;;;;;;;;;5053114;28;20393;-89
2022/05/14 10:31:56;;;;;;;5.10;2.38;;;;;;;;;;5051991;28;20385;-88
2022/05/14 10:34:35;;;;;;;3.42;2.20;;;;;;;;;;5051610;28;20843;-89
2022/05/14 10:37:04;;;;;;;4.40;2.25;;;;;;;;;;5034433;28;20735;-89
2022/05/14 10:39:37;;;;;;;3.53;2.30;;;;;;;;;;5052267;28;20381;-87
2022/05/14 10:42:22;;;;;;;3.33;1.90;;;;;;;;;;5054589;28;20443;-87
2022/05/14 10:44:51;;;;;;;3.53;2.05;;;;;;;;;;5051817;28;20452;-88
2022/05/14 10:47:17;;;;;;;5.28;2.10;;;;;;;;;;5052025;28;20397;-87
2022/05/14 10:49:47;;;;;;;4.32;2.05;;;;;;;;;;5051718;28;20381;-88
2022/05/14 10:52:15;;;;;;;3.85;2.10;;;;;;;;;;5051395;28;20373;-89
2022/05/14 10:54:42;;;;;;;3.97;2.22;;;;;;;;;;5051992;28;20373;-88
2022/05/14 10:57:15;;;;;;;5.32;1.88;;;;;;;;;;5051944;28;20862;-87
2022/05/14 10:59:50;;;;;;;4.40;2.13;;;;;;;;;;5052314;28;20413;-88
2022/05/14 11:02:30;;;;;;;3.65;1.85;;;;;;;;;;5055663;28;20388;-88
2022/05/14 11:04:56;;;;;;;5.50;2.00;;;;;;;;;;5055870;28;20385;-87
2022/05/14 11:07:25;;;;;;;4.47;2.20;;;;;;;;;;5055709;28;20454;-88
2022/05/14 11:09:51;;;;;;;3.35;2.25;;;;;;;;;;5054955;28;20374;-87
2022/05/14 11:12:20;;;;;;;3.80;2.20;;;;;;;;;;5055368;28;20742;-87
2022/05/14 11:14:46;;;;;;;3.22;2.05;;;;;;;;;;5055768;28;20427;-86
2022/05/14 11:17:18;;;;;;;2.95;1.95;;;;;;;;;;5055878;28;20374;-87
2022/05/14 11:19:44;;;;;;;6.22;2.40;;;;;;;;;;5055864;28;20381;-87
2022/05/14 11:22:22;;;;;;;4.28;1.90;;;;;;;;;;5055182;28;20943;-87
2022/05/14 11:24:48;;;;;;;2.88;1.92;;;;;;;;;;5055711;28;20382;-87
2022/05/14 11:27:24;;;;;;;2.63;2.00;;;;;;;;;;5054783;28;20762;-86
2022/05/14 11:29:54;;;;;;;3.95;1.98;;;;;;;;;;5055706;28;20377;-86
2022/05/14 11:32:21;;;;;;;3.00;2.15;;;;;;;;;;5054985;28;20434;-85
2022/05/14 11:34:53;;;;;;;3.58;2.05;;;;;;;;;;5055362;28;20431;-85
2022/05/14 11:37:28;;;;;;;2.88;2.10;;;;;;;;;;5055284;28;20451;-85
2022/05/14 11:40:12;;;;;;;4.50;2.03;;;;;;;;;;5055002;28;20416;-85
2022/05/14 11:42:38;;;;;;;3.17;2.08;;;;;;;;;;5054823;28;20400;-86
2022/05/14 11:45:19;;;;;;;3.88;2.15;;;;;;;;;;5054994;28;20377;-85
2022/05/14 11:47:45;;;;;;;4.20;2.13;;;;;;;;;;5054633;28;20398;-86
2022/05/14 11:50:13;;;;;;;3.13;2.03;;;;;;;;;;5054846;28;20381;-86
2022/05/14 11:52:59;;;;;;;3.95;2.05;;;;;;;;;;5054895;28;20376;-86
2022/05/14 11:55:45;;;;;;;3.20;2.30;;;;;;;;;;5057043;28;20468;-86
2022/05/14 11:58:15;;;;;;;4.45;2.13;;;;;;;;;;5055126;28;20409;-86
2022/05/14 12:00:42;;;;;;;3.47;2.07;;;;;;;;;;5054574;28;20451;-86
2022/05/14 12:03:30;;;;;;;4.68;1.90;;;;;;;;;;5054202;28;20381;-86
2022/05/14 12:05:58;;;;;;;4.40;1.95;;;;;;;;;;5054269;28;20381;-86
2022/05/14 12:08:36;;;;;;;4.13;2.00;;;;;;;;;;5054665;28;20456;-85
2022/05/14 12:11:14;;;;;;;2.55;1.98;;;;;;;;;;5054199;28;20381;-86
2022/05/14 12:14:01;;;;;;;3.67;2.25;;;;;;;;;;5053812;28;20385;-85
2022/05/14 12:16:29;;;;;;;3.15;1.92;;;;;;;;;;5054397;28;20439;-86
2022/05/14 12:18:55;;;;;;;3.13;2.15;;;;;;;;;;5054424;28;20377;-85
2022/05/14 12:21:22;;;;;;;2.92;1.90;;;;;;;;;;5053964;28;20385;-87
2022/05/14 12:23:48;;;;;;;3.80;1.80;;;;;;;;;;5035556;28;20854;-86
2022/05/14 12:26:34;;;;;;;3.22;2.05;;;;;;;;;;5054303;28;20385;-86
2022/05/14 12:29:03;;;;;;;4.43;2.13;;;;;;;;;;5053992;28;20901;-85
2022/05/14 12:34:18;;;;;;;3.92;1.90;;;;;;;;;;5054414;28;20423;-86
2022/05/14 12:36:46;;;;;;;2.97;1.98;;;;;;;;;;5054032;28;20388;-86
2022/05/14 12:39:14;;;;;;;3.40;2.28;;;;;;;;;;5035863;28;20389;-86
2022/05/14 12:41:43;;;;;;;3.25;2.05;;;;;;;;;;5035304;28;20428;-87
2022/05/14 12:44:10;;;;;;;2.95;2.10;;;;;;;;;;5036065;28;20935;-87
2022/05/14 12:46:56;;;;;;;4.10;2.20;;;;;;;;;;5065430;23;20433;-84
2022/05/14 12:49:27;;;;;;;2.80;2.05;;;;;;;;;;5043783;28;20754;-84
2022/05/14 12:51:55;;;;;;;3.90;2.30;;;;;;;;;;5051222;28;20431;-84
2022/05/14 12:54:23;;;;;;;3.77;2.30;;;;;;;;;;5054059;28;20365;-84
2022/05/14 12:56:50;;;;;;;3.58;2.30;;;;;;;;;;5053141;28;20370;-85
2022/05/14 12:59:16;;;;;;;4.85;2.10;;;;;;;;;;5053575;28;20415;-84
2022/05/14 13:01:42;;;;;;;5.07;2.10;;;;;;;;;;5052616;28;20455;-84
2022/05/14 13:04:09;;;;;;;2.53;1.90;;;;;;;;;;5053605;28;20396;-84
2022/05/14 13:06:40;;;;;;;3.15;2.17;;;;;;;;;;5053557;28;20850;-83
2022/05/14 13:09:08;;;;;;;4.47;2.03;;;;;;;;;;5053712;28;20981;-83
2022/05/14 13:11:35;;;;;;;3.10;2.05;;;;;;;;;;5052364;28;20413;-83
2022/05/14 13:14:13;;;;;;;2.77;1.90;;;;;;;;;;5053264;28;20386;-84
2022/05/14 13:16:40;;;;;;;2.80;1.98;;;;;;;;;;5052729;28;20464;-83
2022/05/14 13:19:26;;;;;;;3.42;1.83;;;;;;;;;;5053460;28;20420;-83
2022/05/14 13:21:53;;;;;;;3.15;1.80;;;;;;;;;;5042800;28;20440;-83
2022/05/14 13:24:22;;;;;;;3.78;2.10;;;;;;;;;;5052656;28;20385;-84
2022/05/14 13:26:48;;;;;;;2.63;1.40;;;;;;;;;;5051805;28;20392;-83
2022/05/14 13:29:15;;;;;;;3.42;1.38;;;;;;;;;;5053079;28;20377;-83
2022/05/14 13:31:42;;;;;;;2.05;1.45;;;;;;;;;;5053320;28;20374;-83
2022/05/14 13:37:10;;;;;;;4.00;1.50;;;;;;;;;;5053426;28;20377;-84
2022/05/14 13:39:37;;;;;;;2.80;1.50;;;;;;;;;;5053533;28;20404;-84
2022/05/14 13:42:03;;;;;;;2.97;1.60;;;;;;;;;;5052982;28;20402;-84
2022/05/14 13:44:29;;;;;;;3.50;1.35;;;;;;;;;;5052173;28;20392;-84
2022/05/14 13:46:57;;;;;;;2.88;1.50;;;;;;;;;;5052821;28;20391;-83
2022/05/14 13:49:25;;;;;;;2.90;1.63;;;;;;;;;;5054799;28;20409;-84
2022/05/14 13:51:55;;;;;;;2.58;1.45;;;;;;;;;;5054481;28;20418;-83
2022/05/14 13:54:29;;;;;;;2.80;1.52;;;;;;;;;;5048212;28;20387;-84
2022/05/14 13:57:00;;;;;;;3.07;1.60;;;;;;;;;;5032924;28;20371;-84
2022/05/14 13:59:28;;;;;;;3.78;1.45;;;;;;;;;;5032756;28;20428;-84
2022/05/14 14:01:55;;;;;;;3.17;1.48;;;;;;;;;;5032490;28;20906;-84
2022/05/14 14:04:23;;;;;;;2.55;1.33;;;;;;;;;;5051183;28;20743;-84
2022/05/14 14:06:52;;;;;;;4.03;1.20;;;;;;;;;;5034507;28;20842;-84
2022/05/14 14:09:18;;;;;;;2.58;1.30;;;;;;;;;;5052471;28;20382;-84
2022/05/14 14:11:45;;;;;;;2.53;1.30;;;;;;;;;;5051874;28;20373;-84
2022/05/14 14:14:11;;;;;;;1.95;1.30;;;;;;;;;;5052207;28;20374;-83
2022/05/14 14:16:37;;;;;;;1.70;1.27;;;;;;;;;;5034309;28;20853;-84
2022/05/14 14:19:03;;;;;;;2.63;1.30;;;;;;;;;;5034110;28;20477;-83
2022/05/14 14:21:29;;;;;;;2.25;1.45;;;;;;;;;;5036290;28;20438;-84
2022/05/14 14:23:57;;;;;;;2.42;1.23;;;;;;;;;;5032262;28;20419;-84
2022/05/14 14:26:23;;;;;;;2.07;1.37;;;;;;;;;;5032380;28;20387;-83
2022/05/14 14:28:49;;;;;;;3.77;1.50;;;;;;;;;;5031841;28;20414;-84
2022/05/14 14:31:16;;;;;;;3.10;1.30;;;;;;;;;;5032200;28;20395;-83
2022/05/14 14:33:42;;;;;;;2.53;1.30;;;;;;;;;;5014403;28;20850;-84
2022/05/14 14:36:09;;;;;;;3.35;1.50;;;;;;;;;;5014091;28;20441;-84
2022/05/14 14:38:36;;;;;;;2.10;1.20;;;;;;;;;;5031859;28;20549;-84
2022/05/14 14:41:02;;;;;;;2.97;1.40;;;;;;;;;;5046302;28;20381;-84
2022/05/14 14:43:29;;;;;;;3.08;1.38;;;;;;;;;;5052342;28;20389;-85
2022/05/14 14:45:55;;;;;;;2.95;1.20;;;;;;;;;;5052238;28;20390;-84
2022/05/14 14:48:24;;;;;;;3.35;1.40;;;;;;;;;;5051403;28;20503;-84
2022/05/14 14:50:50;;;;;;;2.88;1.30;;;;;;;;;;5051973;28;20527;-84
2022/05/14 14:53:16;;;;;;;4.28;1.20;;;;;;;;;;5051908;28;20395;-84
2022/05/14 14:55:42;;;;;;;1.77;1.20;;;;;;;;;;5034064;28;20390;-84
2022/05/14 14:58:10;;;;;;;3.50;1.30;;;;;;;;;;5051436;28;20395;-84
2022/05/14 15:00:43;;;;;;;3.55;1.40;;;;;;;;;;5052146;28;20757;-84
2022/05/14 15:03:13;;;;;;;2.30;1.25;;;;;;;;;;5051829;28;20457;-84
2022/05/14 15:05:41;;;;;;;3.10;1.20;;;;;;;;;;5051585;28;20396;-84
2022/05/14 15:08:09;;;;;;;2.60;1.27;;;;;;;;;;5052312;28;20405;-84
2022/05/14 15:10:35;;;;;;;2.38;1.10;;;;;;;;;;5051731;28;20459;-84
2022/05/14 15:13:02;;;;;;;2.88;1.40;;;;;;;;;;5034280;28;20392;-83
2022/05/14 15:15:28;;;;;;;3.47;1.30;;;;;;;;;;5051461;28;20389;-83